sensor_id;sensor_type;location;lat;lon;timestamp;pressure;altitude;pressure_sealevel;temperature;humidity
5413;BME280;2729;50.056;8.678;2022-12-18T00:01:18;101698.31;;;-6.14;100.00
5413;BME280;2729;50.056;8.678;2022-12-18T00:03:45;101692.88;;;-6.45;100.00
5413;BME280;2729;50.056;8.678;2022-12-18T00:06:14;101696.13;;;-6.34;100.00
5413;BME280;2729;50.056;8.678;2022-12-18T00:08:41;101697.59;;;-6.38;100.00
5413;BME280;2729;50.056;8.678;2022-12-18T00:11:10;101693.56;;;-6.47;100.00
5413;BME280;2729;50.056;8.678;2022-12-18T00:13:39;101693.16;;;-6.54;100.00
5413;BME280;2729;50.056;8.678;2022-12-18T00:16:10;101698.34;;;-6.52;100.00
5413;BME280;2729;50.056;8.678;2022-12-18T00:18:37;101696.41;;;-6.43;100.00
5413;BME280;2729;50.056;8.678;2022-12-18T00:21:05;101702.28;;;-6.31;100.00
5413;BME280;2729;50.056;8.678;2022-12-18T00:23:33;101702.44;;;-6.54;100.00
5413;BME280;2729;50.056;8.678;2022-12-18T00:26:00;101704.75;;;-6.57;100.00
5413;BME280;2729;50.056;8.678;2022-12-18T00:28:26;101702.72;;;-6.50;100.00
5413;BME280;2729;50.056;8.678;2022-12-18T00:31:10;101703.91;;;-6.44;100.00
5413;BME280;2729;50.056;8.678;2022-12-18T00:33:37;101691.03;;;-6.47;100.00
5413;BME280;2729;50.056;8.678;2022-12-18T00:36:11;101700.66;;;-6.55;100.00
5413;BME280;2729;50.056;8.678;2022-12-18T00:38:38;101692.03;;;-6.70;100.00
5413;BME280;2729;50.056;8.678;2022-12-18T00:41:05;101696.22;;;-6.96;100.00
5413;BME280;2729;50.056;8.678;2022-12-18T00:43:31;101692.16;;;-6.94;100.00
5413;BME280;2729;50.056;8.678;2022-12-18T00:45:57;101690.53;;;-7.05;100.00
5413;BME280;2729;50.056;8.678;2022-12-18T00:48:23;101693.19;;;-7.03;100.00
5413;BME280;2729;50.056;8.678;2022-12-18T00:50:50;101687.69;;;-7.09;100.00
5413;BME280;2729;50.056;8.678;2022-12-18T00:53:16;101688.09;;;-7.03;100.00
5413;BME280;2729;50.056;8.678;2022-12-18T00:55:43;101693.13;;;-6.92;100.00
5413;BME280;2729;50.056;8.678;2022-12-18T00:58:09;101699.19;;;-6.90;100.00
5413;BME280;2729;50.056;8.678;2022-12-18T01:00:36;101703.47;;;-6.89;100.00
5413;BME280;2729;50.056;8.678;2022-12-18T01:03:03;101703.22;;;-6.80;100.00
5413;BME280;2729;50.056;8.678;2022-12-18T01:05:30;101700.06;;;-6.89;100.00
5413;BME280;2729;50.056;8.678;2022-12-18T01:07:56;101705.22;;;-7.13;100.00
5413;BME280;2729;50.056;8.678;2022-12-18T01:10:23;101712.03;;;-7.00;100.00
5413;BME280;2729;50.056;8.678;2022-12-18T01:12:49;101708.56;;;-6.89;100.00
5413;BME280;2729;50.056;8.678;2022-12-18T01:15:17;101702.91;;;-7.09;100.00
5413;BME280;2729;50.056;8.678;2022-12-18T01:17:44;101705.19;;;-7.01;100.00
5413;BME280;2729;50.056;8.678;2022-12-18T01:20:12;101707.50;;;-7.04;100.00
5413;BME280;2729;50.056;8.678;2022-12-18T01:22:38;101716.69;;;-7.06;100.00
5413;BME280;2729;50.056;8.678;2022-12-18T01:25:06;101715.22;;;-7.02;100.00
5413;BME280;2729;50.056;8.678;2022-12-18T01:27:33;101713.81;;;-7.10;100.00
5413;BME280;2729;50.056;8.678;2022-12-18T01:29:59;101721.81;;;-6.93;100.00
5413;BME280;2729;50.056;8.678;2022-12-18T01:32:25;101717.09;;;-7.00;100.00
5413;BME280;2729;50.056;8.678;2022-12-18T01:34:51;101724.19;;;-7.07;100.00
5413;BME280;2729;50.056;8.678;2022-12-18T01:37:17;101721.31;;;-7.12;100.00
5413;BME280;2729;50.056;8.678;2022-12-18T01:39:43;101727.81;;;-7.04;100.00
5413;BME280;2729;50.056;8.678;2022-12-18T01:42:14;101733.47;;;-7.20;100.00
5413;BME280;2729;50.056;8.678;2022-12-18T01:47:23;101742.03;;;-7.06;100.00
5413;BME280;2729;50.056;8.678;2022-12-18T01:49:50;101743.06;;;-7.16;100.00
5413;BME280;2729;50.056;8.678;2022-12-18T01:52:17;101740.38;;;-7.05;100.00
5413;BME280;2729;50.056;8.678;2022-12-18T01:54:44;101726.88;;;-6.93;100.00
5413;BME280;2729;50.056;8.678;2022-12-18T01:57:11;101725.75;;;-6.85;100.00
5413;BME280;2729;50.056;8.678;2022-12-18T01:59:38;101721.75;;;-6.81;100.00
5413;BME280;2729;50.056;8.678;2022-12-18T02:02:07;101731.97;;;-6.93;100.00
5413;BME280;2729;50.056;8.678;2022-12-18T02:04:33;101723.50;;;-7.05;100.00
5413;BME280;2729;50.056;8.678;2022-12-18T02:09:46;101721.53;;;-7.09;100.00
5413;BME280;2729;50.056;8.678;2022-12-18T02:12:17;101723.91;;;-7.24;100.00
5413;BME280;2729;50.056;8.678;2022-12-18T02:17:22;101720.47;;;-7.24;100.00
5413;BME280;2729;50.056;8.678;2022-12-18T02:20:05;101725.66;;;-7.23;100.00
5413;BME280;2729;50.056;8.678;2022-12-18T02:28:20;101708.75;;;-7.59;100.00
5413;BME280;2729;50.056;8.678;2022-12-18T02:30:50;101707.44;;;-7.54;100.00
5413;BME280;2729;50.056;8.678;2022-12-18T02:33:20;101713.81;;;-7.59;100.00
5413;BME280;2729;50.056;8.678;2022-12-18T02:35:47;101702.38;;;-7.65;100.00
5413;BME280;2729;50.056;8.678;2022-12-18T02:38:15;101708.97;;;-7.56;100.00
5413;BME280;2729;50.056;8.678;2022-12-18T02:40:45;101693.09;;;-7.53;100.00
5413;BME280;2729;50.056;8.678;2022-12-18T02:43:17;101696.66;;;-7.74;100.00
5413;BME280;2729;50.056;8.678;2022-12-18T02:45:48;101699.31;;;-7.73;100.00
5413;BME280;2729;50.056;8.678;2022-12-18T02:48:18;101708.63;;;-7.84;100.00
5413;BME280;2729;50.056;8.678;2022-12-18T02:50:51;101709.44;;;-7.73;100.00
5413;BME280;2729;50.056;8.678;2022-12-18T02:53:28;101710.63;;;-7.68;100.00
5413;BME280;2729;50.056;8.678;2022-12-18T02:56:07;101698.84;;;-7.67;100.00
5413;BME280;2729;50.056;8.678;2022-12-18T02:58:55;101699.59;;;-7.92;100.00
5413;BME280;2729;50.056;8.678;2022-12-18T03:02:05;101700.50;;;-7.68;100.00
5413;BME280;2729;50.056;8.678;2022-12-18T03:04:58;101702.38;;;-7.77;100.00
5413;BME280;2729;50.056;8.678;2022-12-18T03:07:37;101704.81;;;-7.67;100.00
5413;BME280;2729;50.056;8.678;2022-12-18T03:10:12;101719.22;;;-7.66;100.00
5413;BME280;2729;50.056;8.678;2022-12-18T03:12:47;101727.81;;;-7.64;100.00
5413;BME280;2729;50.056;8.678;2022-12-18T03:15:20;101721.34;;;-7.72;100.00
5413;BME280;2729;50.056;8.678;2022-12-18T03:18:03;101719.34;;;-7.64;100.00
5413;BME280;2729;50.056;8.678;2022-12-18T03:20:32;101716.56;;;-7.56;100.00
5413;BME280;2729;50.056;8.678;2022-12-18T03:23:04;101720.53;;;-7.59;100.00
5413;BME280;2729;50.056;8.678;2022-12-18T03:25:32;101711.84;;;-7.63;100.00
5413;BME280;2729;50.056;8.678;2022-12-18T03:28:01;101710.38;;;-7.48;100.00
5413;BME280;2729;50.056;8.678;2022-12-18T03:30:33;101702.59;;;-7.62;100.00
5413;BME280;2729;50.056;8.678;2022-12-18T03:33:25;101706.13;;;-7.72;100.00
5413;BME280;2729;50.056;8.678;2022-12-18T03:35:54;101704.47;;;-7.71;100.00
5413;BME280;2729;50.056;8.678;2022-12-18T03:38:20;101714.50;;;-7.73;100.00
5413;BME280;2729;50.056;8.678;2022-12-18T03:40:56;101714.81;;;-7.68;100.00
5413;BME280;2729;50.056;8.678;2022-12-18T03:52:26;101707.41;;;-8.12;100.00
5413;BME280;2729;50.056;8.678;2022-12-18T03:54:55;101704.78;;;-8.14;100.00
5413;BME280;2729;50.056;8.678;2022-12-18T03:57:26;101709.28;;;-8.21;100.00
5413;BME280;2729;50.056;8.678;2022-12-18T04:00:00;101703.13;;;-8.25;100.00
5413;BME280;2729;50.056;8.678;2022-12-18T04:02:43;101705.41;;;-8.28;100.00
5413;BME280;2729;50.056;8.678;2022-12-18T04:05:12;101705.00;;;-8.22;100.00
5413;BME280;2729;50.056;8.678;2022-12-18T04:07:41;101712.03;;;-8.06;100.00
5413;BME280;2729;50.056;8.678;2022-12-18T04:10:11;101718.41;;;-8.23;100.00
5413;BME280;2729;50.056;8.678;2022-12-18T04:12:38;101720.41;;;-8.07;100.00
5413;BME280;2729;50.056;8.678;2022-12-18T04:15:05;101717.19;;;-8.28;100.00
5413;BME280;2729;50.056;8.678;2022-12-18T04:17:31;101707.06;;;-8.28;100.00
5413;BME280;2729;50.056;8.678;2022-12-18T04:19:57;101702.13;;;-8.27;100.00
5413;BME280;2729;50.056;8.678;2022-12-18T04:22:24;101703.34;;;-8.33;100.00
5413;BME280;2729;50.056;8.678;2022-12-18T04:24:55;101710.06;;;-8.46;100.00
5413;BME280;2729;50.056;8.678;2022-12-18T04:27:29;101708.97;;;-8.37;100.00
5413;BME280;2729;50.056;8.678;2022-12-18T04:29:56;101710.50;;;-8.39;100.00
5413;BME280;2729;50.056;8.678;2022-12-18T04:32:22;101704.22;;;-8.45;100.00
5413;BME280;2729;50.056;8.678;2022-12-18T04:34:49;101700.38;;;-8.39;100.00
5413;BME280;2729;50.056;8.678;2022-12-18T04:37:15;101699.03;;;-8.58;100.00
5413;BME280;2729;50.056;8.678;2022-12-18T04:39:41;101705.97;;;-8.55;100.00
5413;BME280;2729;50.056;8.678;2022-12-18T04:42:14;101697.28;;;-8.47;100.00
5413;BME280;2729;50.056;8.678;2022-12-18T04:44:40;101696.84;;;-8.41;100.00
5413;BME280;2729;50.056;8.678;2022-12-18T04:47:06;101696.59;;;-8.56;100.00
5413;BME280;2729;50.056;8.678;2022-12-18T04:49:33;101697.63;;;-8.43;100.00
5413;BME280;2729;50.056;8.678;2022-12-18T04:51:59;101699.94;;;-8.34;100.00
5413;BME280;2729;50.056;8.678;2022-12-18T04:54:25;101698.19;;;-8.35;100.00
5413;BME280;2729;50.056;8.678;2022-12-18T04:56:51;101699.94;;;-8.34;100.00
5413;BME280;2729;50.056;8.678;2022-12-18T04:59:17;101699.72;;;-8.37;100.00
5413;BME280;2729;50.056;8.678;2022-12-18T05:01:43;101699.81;;;-8.24;100.00
5413;BME280;2729;50.056;8.678;2022-12-18T05:04:08;101702.13;;;-8.15;100.00
5413;BME280;2729;50.056;8.678;2022-12-18T05:06:34;101694.31;;;-8.30;100.00
5413;BME280;2729;50.056;8.678;2022-12-18T05:09:00;101708.31;;;-8.35;100.00
5413;BME280;2729;50.056;8.678;2022-12-18T05:11:26;101708.94;;;-8.26;100.00
5413;BME280;2729;50.056;8.678;2022-12-18T05:13:52;101712.78;;;-8.31;100.00
5413;BME280;2729;50.056;8.678;2022-12-18T05:16:18;101709.63;;;-8.17;100.00
5413;BME280;2729;50.056;8.678;2022-12-18T05:18:44;101717.53;;;-8.47;100.00
5413;BME280;2729;50.056;8.678;2022-12-18T05:21:10;101726.53;;;-8.51;100.00
5413;BME280;2729;50.056;8.678;2022-12-18T05:23:36;101730.72;;;-8.51;100.00
5413;BME280;2729;50.056;8.678;2022-12-18T05:26:04;101727.88;;;-8.44;100.00
5413;BME280;2729;50.056;8.678;2022-12-18T05:28:32;101732.16;;;-8.55;100.00
5413;BME280;2729;50.056;8.678;2022-12-18T05:30:59;101717.94;;;-8.64;100.00
5413;BME280;2729;50.056;8.678;2022-12-18T05:33:27;101715.28;;;-8.66;100.00
5413;BME280;2729;50.056;8.678;2022-12-18T05:35:56;101718.47;;;-8.68;100.00
5413;BME280;2729;50.056;8.678;2022-12-18T05:38:23;101718.81;;;-8.64;100.00
5413;BME280;2729;50.056;8.678;2022-12-18T05:40:50;101717.72;;;-8.56;100.00
5413;BME280;2729;50.056;8.678;2022-12-18T05:43:16;101703.69;;;-8.40;100.00
5413;BME280;2729;50.056;8.678;2022-12-18T05:45:42;101699.94;;;-8.46;100.00
5413;BME280;2729;50.056;8.678;2022-12-18T05:48:09;101694.53;;;-8.50;100.00
5413;BME280;2729;50.056;8.678;2022-12-18T05:50:39;101702.38;;;-8.35;100.00
5413;BME280;2729;50.056;8.678;2022-12-18T05:53:05;101696.50;;;-8.23;100.00
5413;BME280;2729;50.056;8.678;2022-12-18T05:55:35;101697.97;;;-8.38;100.00
5413;BME280;2729;50.056;8.678;2022-12-18T05:58:03;101704.31;;;-8.31;100.00
5413;BME280;2729;50.056;8.678;2022-12-18T06:00:31;101710.16;;;-8.32;100.00
5413;BME280;2729;50.056;8.678;2022-12-18T06:02:58;101715.22;;;-8.32;100.00
5413;BME280;2729;50.056;8.678;2022-12-18T06:05:25;101715.13;;;-8.34;100.00
5413;BME280;2729;50.056;8.678;2022-12-18T06:07:51;101720.84;;;-8.36;100.00
5413;BME280;2729;50.056;8.678;2022-12-18T06:10:18;101721.38;;;-8.52;100.00
5413;BME280;2729;50.056;8.678;2022-12-18T06:12:44;101719.47;;;-8.66;100.00
5413;BME280;2729;50.056;8.678;2022-12-18T06:15:10;101722.22;;;-8.63;100.00
5413;BME280;2729;50.056;8.678;2022-12-18T06:17:39;101724.13;;;-8.49;100.00
5413;BME280;2729;50.056;8.678;2022-12-18T06:20:05;101718.22;;;-8.38;100.00
5413;BME280;2729;50.056;8.678;2022-12-18T06:22:32;101722.06;;;-8.43;100.00
5413;BME280;2729;50.056;8.678;2022-12-18T06:24:58;101723.00;;;-8.53;100.00
5413;BME280;2729;50.056;8.678;2022-12-18T06:27:25;101738.13;;;-8.43;100.00
5413;BME280;2729;50.056;8.678;2022-12-18T06:29:51;101737.00;;;-8.46;100.00
5413;BME280;2729;50.056;8.678;2022-12-18T06:32:18;101739.84;;;-8.53;100.00
5413;BME280;2729;50.056;8.678;2022-12-18T06:34:44;101742.59;;;-8.50;100.00
5413;BME280;2729;50.056;8.678;2022-12-18T06:37:10;101745.25;;;-8.49;100.00
5413;BME280;2729;50.056;8.678;2022-12-18T06:39:36;101754.41;;;-8.39;100.00
5413;BME280;2729;50.056;8.678;2022-12-18T06:42:02;101755.84;;;-8.43;100.00
5413;BME280;2729;50.056;8.678;2022-12-18T06:44:28;101760.00;;;-8.43;100.00
5413;BME280;2729;50.056;8.678;2022-12-18T06:46:55;101758.16;;;-8.67;100.00
5413;BME280;2729;50.056;8.678;2022-12-18T06:49:21;101755.72;;;-8.78;100.00
5413;BME280;2729;50.056;8.678;2022-12-18T06:51:47;101756.66;;;-8.87;100.00
5413;BME280;2729;50.056;8.678;2022-12-18T06:54:13;101760.66;;;-9.01;100.00
5413;BME280;2729;50.056;8.678;2022-12-18T06:56:39;101753.91;;;-8.90;100.00
5413;BME280;2729;50.056;8.678;2022-12-18T06:59:05;101753.47;;;-8.85;100.00
5413;BME280;2729;50.056;8.678;2022-12-18T07:01:31;101760.66;;;-9.01;100.00
5413;BME280;2729;50.056;8.678;2022-12-18T07:03:57;101754.44;;;-8.94;100.00
5413;BME280;2729;50.056;8.678;2022-12-18T07:06:25;101761.84;;;-8.86;100.00
5413;BME280;2729;50.056;8.678;2022-12-18T07:08:53;101755.25;;;-8.84;100.00
5413;BME280;2729;50.056;8.678;2022-12-18T07:11:19;101765.19;;;-8.97;100.00
5413;BME280;2729;50.056;8.678;2022-12-18T07:13:45;101770.72;;;-9.13;100.00
5413;BME280;2729;50.056;8.678;2022-12-18T07:16:18;101771.41;;;-9.25;100.00
5413;BME280;2729;50.056;8.678;2022-12-18T07:18:45;101772.84;;;-9.07;100.00
5413;BME280;2729;50.056;8.678;2022-12-18T07:21:13;101773.78;;;-8.95;100.00
5413;BME280;2729;50.056;8.678;2022-12-18T07:23:39;101770.25;;;-8.97;100.00
5413;BME280;2729;50.056;8.678;2022-12-18T07:26:08;101775.94;;;-8.99;100.00
5413;BME280;2729;50.056;8.678;2022-12-18T07:28:35;101772.38;;;-8.91;100.00
5413;BME280;2729;50.056;8.678;2022-12-18T07:31:06;101757.78;;;-8.84;100.00
5413;BME280;2729;50.056;8.678;2022-12-18T07:33:33;101760.22;;;-8.52;100.00
5413;BME280;2729;50.056;8.678;2022-12-18T07:36:00;101751.97;;;-8.49;100.00
5413;BME280;2729;50.056;8.678;2022-12-18T07:38:26;101756.53;;;-8.67;100.00
5413;BME280;2729;50.056;8.678;2022-12-18T07:40:52;101750.34;;;-8.70;100.00
5413;BME280;2729;50.056;8.678;2022-12-18T07:43:18;101765.09;;;-8.65;100.00
5413;BME280;2729;50.056;8.678;2022-12-18T07:45:44;101766.28;;;-8.71;100.00
5413;BME280;2729;50.056;8.678;2022-12-18T07:48:10;101761.34;;;-8.70;100.00
5413;BME280;2729;50.056;8.678;2022-12-18T07:50:37;101770.63;;;-8.59;100.00
5413;BME280;2729;50.056;8.678;2022-12-18T07:53:03;101771.00;;;-8.31;100.00
5413;BME280;2729;50.056;8.678;2022-12-18T07:55:31;101770.34;;;-8.28;100.00
5413;BME280;2729;50.056;8.678;2022-12-18T07:58:00;101769.81;;;-8.36;100.00
5413;BME280;2729;50.056;8.678;2022-12-18T08:00:26;101768.84;;;-8.15;100.00
5413;BME280;2729;50.056;8.678;2022-12-18T08:02:52;101765.09;;;-8.20;100.00
5413;BME280;2729;50.056;8.678;2022-12-18T08:05:18;101770.94;;;-8.21;100.00
5413;BME280;2729;50.056;8.678;2022-12-18T08:07:46;101771.50;;;-8.13;100.00
5413;BME280;2729;50.056;8.678;2022-12-18T08:10:12;101759.84;;;-7.99;100.00
5413;BME280;2729;50.056;8.678;2022-12-18T08:12:39;101770.75;;;-7.89;100.00
5413;BME280;2729;50.056;8.678;2022-12-18T08:15:05;101773.84;;;-7.93;100.00
5413;BME280;2729;50.056;8.678;2022-12-18T08:17:31;101764.72;;;-7.79;100.00
5413;BME280;2729;50.056;8.678;2022-12-18T08:19:57;101769.81;;;-7.79;100.00
5413;BME280;2729;50.056;8.678;2022-12-18T08:22:23;101771.22;;;-7.71;100.00
5413;BME280;2729;50.056;8.678;2022-12-18T08:24:49;101774.53;;;-7.49;100.00
5413;BME280;2729;50.056;8.678;2022-12-18T08:27:15;101778.94;;;-7.34;100.00
5413;BME280;2729;50.056;8.678;2022-12-18T08:29:41;101778.59;;;-7.27;100.00
5413;BME280;2729;50.056;8.678;2022-12-18T08:32:07;101768.41;;;-7.16;100.00
5413;BME280;2729;50.056;8.678;2022-12-18T08:34:33;101760.56;;;-7.07;100.00
5413;BME280;2729;50.056;8.678;2022-12-18T08:36:59;101757.19;;;-6.83;100.00
5413;BME280;2729;50.056;8.678;2022-12-18T08:39:25;101753.34;;;-6.64;100.00
5413;BME280;2729;50.056;8.678;2022-12-18T08:41:51;101760.97;;;-6.39;100.00
5413;BME280;2729;50.056;8.678;2022-12-18T08:44:40;101753.69;;;-6.22;100.00
5413;BME280;2729;50.056;8.678;2022-12-18T08:47:07;101740.50;;;-6.16;100.00
5413;BME280;2729;50.056;8.678;2022-12-18T08:49:33;101741.19;;;-6.05;100.00
5413;BME280;2729;50.056;8.678;2022-12-18T08:52:00;101738.28;;;-5.98;100.00
5413;BME280;2729;50.056;8.678;2022-12-18T08:54:27;101724.41;;;-5.90;100.00
5413;BME280;2729;50.056;8.678;2022-12-18T08:56:53;101710.41;;;-5.84;100.00
5413;BME280;2729;50.056;8.678;2022-12-18T08:59:19;101713.72;;;-5.71;100.00
5413;BME280;2729;50.056;8.678;2022-12-18T09:01:45;101711.75;;;-5.62;100.00
5413;BME280;2729;50.056;8.678;2022-12-18T09:04:12;101716.66;;;-5.65;100.00
5413;BME280;2729;50.056;8.678;2022-12-18T09:06:39;101727.50;;;-5.55;100.00
5413;BME280;2729;50.056;8.678;2022-12-18T09:09:06;101728.75;;;-5.35;100.00
5413;BME280;2729;50.056;8.678;2022-12-18T09:11:32;101733.03;;;-5.34;100.00
5413;BME280;2729;50.056;8.678;2022-12-18T09:14:00;101725.19;;;-5.24;100.00
5413;BME280;2729;50.056;8.678;2022-12-18T09:16:27;101731.16;;;-5.23;100.00
5413;BME280;2729;50.056;8.678;2022-12-18T09:18:55;101736.47;;;-5.20;100.00
5413;BME280;2729;50.056;8.678;2022-12-18T09:21:27;101741.94;;;-5.14;100.00
5413;BME280;2729;50.056;8.678;2022-12-18T09:23:55;101742.31;;;-5.08;100.00
5413;BME280;2729;50.056;8.678;2022-12-18T09:26:22;101740.06;;;-5.03;100.00
5413;BME280;2729;50.056;8.678;2022-12-18T09:28:48;101733.84;;;-4.94;100.00
5413;BME280;2729;50.056;8.678;2022-12-18T09:31:15;101738.53;;;-4.87;100.00
5413;BME280;2729;50.056;8.678;2022-12-18T09:33:41;101735.28;;;-4.84;100.00
5413;BME280;2729;50.056;8.678;2022-12-18T09:36:10;101735.78;;;-4.62;100.00
5413;BME280;2729;50.056;8.678;2022-12-18T09:38:37;101737.38;;;-4.64;100.00
5413;BME280;2729;50.056;8.678;2022-12-18T09:41:06;101736.50;;;-4.49;100.00
5413;BME280;2729;50.056;8.678;2022-12-18T09:43:50;101745.31;;;-4.44;100.00
5413;BME280;2729;50.056;8.678;2022-12-18T09:46:27;101737.94;;;-4.40;100.00
5413;BME280;2729;50.056;8.678;2022-12-18T09:48:58;101740.56;;;-4.38;100.00
5413;BME280;2729;50.056;8.678;2022-12-18T09:51:33;101748.16;;;-4.10;100.00
5413;BME280;2729;50.056;8.678;2022-12-18T09:54:04;101756.59;;;-4.11;100.00
5413;BME280;2729;50.056;8.678;2022-12-18T09:56:35;101753.16;;;-3.97;100.00
5413;BME280;2729;50.056;8.678;2022-12-18T09:59:04;101743.56;;;-4.01;100.00
5413;BME280;2729;50.056;8.678;2022-12-18T10:01:31;101741.19;;;-3.98;100.00
5413;BME280;2729;50.056;8.678;2022-12-18T10:03:59;101739.97;;;-3.90;100.00
5413;BME280;2729;50.056;8.678;2022-12-18T10:06:34;101743.94;;;-3.95;100.00
5413;BME280;2729;50.056;8.678;2022-12-18T10:22:10;101753.41;;;-4.07;100.00
5413;BME280;2729;50.056;8.678;2022-12-18T10:24:54;101742.88;;;-3.84;100.00
5413;BME280;2729;50.056;8.678;2022-12-18T10:27:25;101745.50;;;-3.97;100.00
5413;BME280;2729;50.056;8.678;2022-12-18T10:29:52;101735.66;;;-4.06;100.00
5413;BME280;2729;50.056;8.678;2022-12-18T10:32:26;101723.38;;;-4.13;100.00
5413;BME280;2729;50.056;8.678;2022-12-18T10:34:55;101734.00;;;-4.20;100.00
5413;BME280;2729;50.056;8.678;2022-12-18T10:37:27;101736.53;;;-4.20;100.00
5413;BME280;2729;50.056;8.678;2022-12-18T10:42:33;101740.75;;;-3.91;100.00
5413;BME280;2729;50.056;8.678;2022-12-18T10:45:17;101741.03;;;-3.86;100.00
5413;BME280;2729;50.056;8.678;2022-12-18T10:47:45;101750.25;;;-4.03;100.00
5413;BME280;2729;50.056;8.678;2022-12-18T10:50:40;101750.59;;;-3.97;100.00
5413;BME280;2729;50.056;8.678;2022-12-18T10:53:05;101741.81;;;-3.88;100.00
5413;BME280;2729;50.056;8.678;2022-12-18T10:55:37;101742.69;;;-3.72;100.00
5413;BME280;2729;50.056;8.678;2022-12-18T10:58:30;101736.53;;;-3.76;100.00
5413;BME280;2729;50.056;8.678;2022-12-18T11:01:13;101729.81;;;-3.59;100.00
5413;BME280;2729;50.056;8.678;2022-12-18T11:03:44;101738.06;;;-3.48;100.00
5413;BME280;2729;50.056;8.678;2022-12-18T11:06:15;101741.03;;;-3.41;100.00
5413;BME280;2729;50.056;8.678;2022-12-18T11:08:44;101744.66;;;-3.52;100.00
5413;BME280;2729;50.056;8.678;2022-12-18T11:11:23;101743.75;;;-3.38;100.00
5413;BME280;2729;50.056;8.678;2022-12-18T11:13:58;101734.13;;;-3.58;100.00
5413;BME280;2729;50.056;8.678;2022-12-18T11:16:26;101723.91;;;-3.27;100.00
5413;BME280;2729;50.056;8.678;2022-12-18T11:18:52;101721.09;;;-3.32;100.00
5413;BME280;2729;50.056;8.678;2022-12-18T11:21:18;101719.72;;;-3.41;100.00
5413;BME280;2729;50.056;8.678;2022-12-18T11:23:52;101733.66;;;-3.20;100.00
5413;BME280;2729;50.056;8.678;2022-12-18T11:26:19;101729.66;;;-3.31;100.00
5413;BME280;2729;50.056;8.678;2022-12-18T11:28:50;101723.53;;;-3.18;100.00
5413;BME280;2729;50.056;8.678;2022-12-18T11:31:28;101718.03;;;-3.10;100.00
5413;BME280;2729;50.056;8.678;2022-12-18T11:34:04;101713.81;;;-3.09;100.00
5413;BME280;2729;50.056;8.678;2022-12-18T11:36:35;101709.91;;;-3.03;100.00
5413;BME280;2729;50.056;8.678;2022-12-18T11:39:12;101710.69;;;-3.20;100.00
5413;BME280;2729;50.056;8.678;2022-12-18T11:41:48;101703.84;;;-2.88;100.00
5413;BME280;2729;50.056;8.678;2022-12-18T11:44:43;101707.84;;;-2.94;100.00
5413;BME280;2729;50.056;8.678;2022-12-18T11:47:44;101713.56;;;-2.98;100.00
5413;BME280;2729;50.056;8.678;2022-12-18T11:50:46;101716.59;;;-2.72;100.00
5413;BME280;2729;50.056;8.678;2022-12-18T11:53:14;101715.69;;;-2.58;100.00
5413;BME280;2729;50.056;8.678;2022-12-18T12:03:59;101694.81;;;-2.82;100.00
5413;BME280;2729;50.056;8.678;2022-12-18T12:07:02;101697.63;;;-2.77;100.00
5413;BME280;2729;50.056;8.678;2022-12-18T12:20:59;101696.00;;;-2.43;100.00
5413;BME280;2729;50.056;8.678;2022-12-18T12:26:57;101687.91;;;-2.34;100.00
5413;BME280;2729;50.056;8.678;2022-12-18T12:29:52;101697.91;;;-2.39;100.00
5413;BME280;2729;50.056;8.678;2022-12-18T12:38:09;101689.72;;;-2.49;100.00
5413;BME280;2729;50.056;8.678;2022-12-18T12:40:49;101681.97;;;-2.51;100.00
5413;BME280;2729;50.056;8.678;2022-12-18T12:43:42;101683.16;;;-2.44;100.00
5413;BME280;2729;50.056;8.678;2022-12-18T12:46:13;101676.63;;;-2.21;100.00
5413;BME280;2729;50.056;8.678;2022-12-18T12:48:44;101666.94;;;-2.45;100.00
5413;BME280;2729;50.056;8.678;2022-12-18T12:51:24;101667.50;;;-2.50;100.00
5413;BME280;2729;50.056;8.678;2022-12-18T12:53:51;101661.66;;;-2.48;100.00
5413;BME280;2729;50.056;8.678;2022-12-18T12:56:19;101656.41;;;-2.51;100.00
5413;BME280;2729;50.056;8.678;2022-12-18T12:59:13;101650.59;;;-2.31;100.00
5413;BME280;2729;50.056;8.678;2022-12-18T13:02:04;101658.22;;;-2.14;100.00
5413;BME280;2729;50.056;8.678;2022-12-18T13:04:40;101655.22;;;-2.23;100.00
5413;BME280;2729;50.056;8.678;2022-12-18T13:07:27;101662.16;;;-2.21;100.00
5413;BME280;2729;50.056;8.678;2022-12-18T13:12:55;101667.06;;;-2.08;100.00
5413;BME280;2729;50.056;8.678;2022-12-18T13:15:25;101656.53;;;-2.14;100.00
5413;BME280;2729;50.056;8.678;2022-12-18T13:20:41;101652.97;;;-2.17;100.00
5413;BME280;2729;50.056;8.678;2022-12-18T13:25:52;101643.59;;;-2.17;100.00
5413;BME280;2729;50.056;8.678;2022-12-18T13:31:03;101643.47;;;-2.20;100.00
5413;BME280;2729;50.056;8.678;2022-12-18T13:36:30;101638.13;;;-2.07;100.00
5413;BME280;2729;50.056;8.678;2022-12-18T13:41:45;101637.63;;;-2.00;100.00
5413;BME280;2729;50.056;8.678;2022-12-18T13:46:54;101614.22;;;-2.07;100.00
5413;BME280;2729;50.056;8.678;2022-12-18T13:52:02;101620.44;;;-2.02;100.00
5413;BME280;2729;50.056;8.678;2022-12-18T13:54:35;101617.09;;;-2.01;100.00
5413;BME280;2729;50.056;8.678;2022-12-18T13:57:03;101611.31;;;-1.97;100.00
5413;BME280;2729;50.056;8.678;2022-12-18T13:59:38;101611.16;;;-2.18;100.00
5413;BME280;2729;50.056;8.678;2022-12-18T14:02:13;101604.88;;;-2.07;100.00
5413;BME280;2729;50.056;8.678;2022-12-18T14:04:39;101602.19;;;-2.10;100.00
5413;BME280;2729;50.056;8.678;2022-12-18T14:07:10;101597.28;;;-2.05;100.00
5413;BME280;2729;50.056;8.678;2022-12-18T14:09:43;101603.88;;;-2.10;100.00
5413;BME280;2729;50.056;8.678;2022-12-18T14:12:22;101594.28;;;-2.14;100.00
5413;BME280;2729;50.056;8.678;2022-12-18T14:15:38;101598.53;;;-2.15;100.00
5413;BME280;2729;50.056;8.678;2022-12-18T14:18:23;101593.13;;;-2.21;100.00
5413;BME280;2729;50.056;8.678;2022-12-18T14:20:52;101598.22;;;-2.03;100.00
5413;BME280;2729;50.056;8.678;2022-12-18T14:23:39;101604.13;;;-1.86;100.00
5413;BME280;2729;50.056;8.678;2022-12-18T14:26:26;101604.66;;;-2.11;100.00
5413;BME280;2729;50.056;8.678;2022-12-18T14:29:14;101603.28;;;-2.05;100.00
5413;BME280;2729;50.056;8.678;2022-12-18T14:31:43;101607.06;;;-1.97;100.00
5413;BME280;2729;50.056;8.678;2022-12-18T14:34:15;101602.69;;;-1.99;100.00
5413;BME280;2729;50.056;8.678;2022-12-18T14:36:41;101602.91;;;-1.95;100.00
5413;BME280;2729;50.056;8.678;2022-12-18T14:39:17;101600.28;;;-1.96;100.00
5413;BME280;2729;50.056;8.678;2022-12-18T14:41:43;101601.44;;;-2.07;100.00
5413;BME280;2729;50.056;8.678;2022-12-18T14:44:12;101599.56;;;-2.11;100.00
5413;BME280;2729;50.056;8.678;2022-12-18T14:46:39;101594.38;;;-2.13;100.00